Orbital elements of COSMOS 970 DEB
| Launched | 20 December 1977 |
| Flight ended | – |
| Launch site | Tyuratam Missile and Space Center, Kazakhstan (Also known as Baikonur Cosmodrome) |
| Owner | Commonwealth of Independent States (former USSR) |
| NORAD ID | 12870 |
| Date fetched |
Epoch osculation |
Inc. [°] |
Ecc. | RA asc node [hr] |
Arg Peri. [°] |
Mean anom [°] |
Mean motion [rev/day] |
Abs. mag |
| Date fetched |
Epoch osculation |
Inc. [°] |
Ecc. | RA asc node [hr] |
Arg Peri. [°] |
Mean anom [°] |
Mean motion [rev/day] |
Abs. mag |
| 2026 May 03 17:57 | 2026 Apr 30 11:43:38 | 65.7236 | 0.01062 | 17.6546 | 51.4563 | 9.4308 | 13.89258 | – |
| 2026 May 02 17:57 | 2026 Apr 30 11:43:38 | 65.7236 | 0.01062 | 17.6546 | 51.4563 | 9.4308 | 13.89258 | – |
| 2026 May 01 17:56 | 2026 Apr 30 11:43:38 | 65.7236 | 0.01062 | 17.6546 | 51.4563 | 9.4308 | 13.89258 | – |
| 2026 Apr 30 17:56 | 2026 Apr 30 11:43:38 | 65.7236 | 0.01062 | 17.6546 | 51.4563 | 9.4308 | 13.89258 | – |
| 2026 Apr 29 17:57 | 2026 Apr 21 20:37:51 | 65.7233 | 0.01060 | 19.1170 | 55.9477 | 9.4308 | 13.89258 | – |
| 2026 Apr 28 17:56 | 2026 Apr 21 20:37:51 | 65.7233 | 0.01060 | 19.1170 | 55.9477 | 9.4308 | 13.89258 | – |
| 2026 Apr 27 17:58 | 2026 Apr 21 20:37:51 | 65.7233 | 0.01060 | 19.1170 | 55.9477 | 9.4308 | 13.89258 | – |
| 2026 Apr 26 17:58 | 2026 Apr 21 20:37:51 | 65.7233 | 0.01060 | 19.1170 | 55.9477 | 9.4308 | 13.89258 | – |
| 2026 Apr 25 17:58 | 2026 Apr 21 20:37:51 | 65.7233 | 0.01060 | 19.1170 | 55.9477 | 9.4308 | 13.89258 | – |
| 2026 Apr 24 17:59 | 2026 Apr 21 20:37:51 | 65.7233 | 0.01060 | 19.1170 | 55.9477 | 9.4308 | 13.89258 | – |
| 2026 Apr 23 17:57 | 2026 Apr 18 14:39:16 | 65.7237 | 0.01060 | 19.6676 | 57.5732 | 9.4308 | 13.89258 | – |
| 2026 Apr 22 17:57 | 2026 Apr 18 14:39:16 | 65.7237 | 0.01060 | 19.6676 | 57.5732 | 9.4308 | 13.89258 | – |
| 2026 Apr 21 17:57 | 2026 Apr 18 14:39:16 | 65.7237 | 0.01060 | 19.6676 | 57.5732 | 9.4308 | 13.89258 | – |
| 2026 Apr 20 17:57 | 2026 Apr 18 14:39:16 | 65.7237 | 0.01060 | 19.6676 | 57.5732 | 9.4308 | 13.89258 | – |
| 2026 Apr 19 17:58 | 2026 Apr 18 14:39:16 | 65.7237 | 0.01060 | 19.6676 | 57.5732 | 9.4308 | 13.89258 | – |
| 2026 Apr 18 17:56 | 2026 Apr 12 17:01:17 | 65.7243 | 0.01057 | 20.6677 | 60.5441 | 9.4308 | 13.89258 | – |
| 2026 Apr 16 17:57 | 2026 Apr 12 17:01:17 | 65.7243 | 0.01057 | 20.6677 | 60.5441 | 9.4308 | 13.89258 | – |
| 2026 Apr 14 17:57 | 2026 Apr 12 17:01:17 | 65.7243 | 0.01057 | 20.6677 | 60.5441 | 9.4308 | 13.89258 | – |
| 2026 Apr 13 17:57 | 2026 Apr 12 17:01:17 | 65.7243 | 0.01057 | 20.6677 | 60.5441 | 9.4308 | 13.89258 | – |
| 2026 Apr 12 17:57 | 2026 Apr 08 01:05:35 | 65.7250 | 0.01055 | 21.4580 | 62.8965 | 9.4308 | 13.89258 | – |
| 2026 Apr 11 17:57 | 2026 Apr 08 01:05:35 | 65.7250 | 0.01055 | 21.4580 | 62.8965 | 9.4308 | 13.89258 | – |
| 2026 Apr 10 17:58 | 2026 Apr 08 01:05:35 | 65.7250 | 0.01055 | 21.4580 | 62.8965 | 9.4308 | 13.89258 | – |
| 2026 Apr 09 18:01 | 2026 Apr 08 01:05:35 | 65.7250 | 0.01055 | 21.4580 | 62.8965 | 9.4308 | 13.89258 | – |
| 2026 Apr 08 17:57 | 2026 Apr 08 01:05:35 | 65.7250 | 0.01055 | 21.4580 | 62.8965 | 9.4308 | 13.89258 | – |
| 2026 Apr 07 17:57 | 2026 Apr 01 03:15:12 | 65.7256 | 0.01051 | 22.6288 | 66.3941 | 9.4308 | 13.89258 | – |
| 2026 Apr 06 17:57 | 2026 Apr 01 03:15:12 | 65.7256 | 0.01051 | 22.6288 | 66.3941 | 9.4308 | 13.89258 | – |